createdAt,value
2018-09-19T00:01:16.009Z,5.93
2018-09-19T00:03:45.514Z,7.27
2018-09-19T00:06:15.016Z,6.90
2018-09-19T00:08:44.465Z,8.90
2018-09-19T00:11:13.823Z,5.87
2018-09-19T00:13:43.326Z,7.13
2018-09-19T00:16:13.779Z,6.33
2018-09-19T00:18:43.362Z,6.37
2018-09-19T00:21:12.863Z,6.10
2018-09-19T00:23:42.992Z,6.77
2018-09-19T00:26:12.589Z,6.97
2018-09-19T00:28:42.095Z,5.87
2018-09-19T00:31:11.506Z,6.83
2018-09-19T00:33:41.002Z,6.53
2018-09-19T00:36:10.506Z,6.27
2018-09-19T00:38:40.008Z,5.67
2018-09-19T00:41:09.410Z,6.13
2018-09-19T00:43:39.122Z,7.63
2018-09-19T00:46:08.728Z,6.60
2018-09-19T00:48:38.127Z,7.70
2018-09-19T00:51:07.934Z,6.03
2018-09-19T00:53:37.343Z,7.77
2018-09-19T00:56:06.848Z,5.30
2018-09-19T00:58:36.151Z,6.67
2018-09-19T01:01:05.653Z,5.97
2018-09-19T01:03:35.051Z,5.30
2018-09-19T01:06:04.492Z,6.07
2018-09-19T01:08:35.085Z,5.77
2018-09-19T01:11:04.483Z,6.93
2018-09-19T01:13:33.889Z,9.53
2018-09-19T01:16:03.391Z,6.27
2018-09-19T01:18:32.845Z,5.53
2018-09-19T01:21:02.505Z,7.30
2018-09-19T01:23:31.907Z,6.67
2018-09-19T01:26:01.355Z,6.60
2018-09-19T01:28:30.968Z,5.43
2018-09-19T01:31:00.625Z,6.83
2018-09-19T01:33:30.130Z,6.47
2018-09-19T01:35:59.638Z,6.10
2018-09-19T01:38:29.343Z,5.67
2018-09-19T01:40:58.796Z,5.93
2018-09-19T01:43:28.360Z,6.30
2018-09-19T01:45:59.086Z,7.73
2018-09-19T01:48:28.497Z,6.27
2018-09-19T01:50:58.093Z,6.80
2018-09-19T01:53:27.495Z,7.80
2018-09-19T01:55:56.922Z,7.80
2018-09-19T01:58:26.300Z,6.50
2018-09-19T02:00:55.708Z,8.57
2018-09-19T02:03:25.054Z,9.03
2018-09-19T02:05:54.608Z,6.73
2018-09-19T02:08:24.015Z,6.20
2018-09-19T02:10:53.411Z,5.77
2018-09-19T02:13:23.020Z,6.93
2018-09-19T02:15:52.727Z,5.50
2018-09-19T02:18:23.371Z,6.20
2018-09-19T02:20:52.863Z,6.60
2018-09-19T02:23:22.368Z,6.73
2018-09-19T02:25:52.060Z,7.53
2018-09-19T02:28:21.715Z,8.77
2018-09-19T02:30:51.195Z,7.83
2018-09-19T02:33:20.813Z,7.43
2018-09-19T02:35:50.295Z,6.43
2018-09-19T02:38:19.830Z,7.27
2018-09-19T02:40:49.290Z,7.70
2018-09-19T02:43:18.831Z,7.50
2018-09-19T02:45:48.419Z,12.10
2018-09-19T02:48:18.129Z,6.63
2018-09-19T02:50:47.656Z,7.47
2018-09-19T02:53:17.139Z,11.63
2018-09-19T02:55:46.686Z,7.90
2018-09-19T02:58:16.071Z,10.57
2018-09-19T03:00:45.752Z,10.23
2018-09-19T03:03:15.359Z,8.27
2018-09-19T03:05:44.929Z,7.53
2018-09-19T03:08:14.471Z,8.70
2018-09-19T03:10:43.974Z,7.60
2018-09-19T03:13:13.428Z,6.40
2018-09-19T03:15:42.779Z,7.10
2018-09-19T03:18:12.386Z,6.97
2018-09-19T03:20:41.897Z,9.57
2018-09-19T03:23:11.394Z,8.27
2018-09-19T03:25:41.005Z,7.57
2018-09-19T03:28:11.119Z,8.97
2018-09-19T03:30:40.631Z,10.23
2018-09-19T03:33:10.150Z,8.53
2018-09-19T03:35:39.637Z,7.80
2018-09-19T03:38:09.138Z,8.97
2018-09-19T03:40:38.543Z,8.40
2018-09-19T03:43:07.941Z,7.80
2018-09-19T03:45:37.655Z,8.53
2018-09-19T03:48:07.259Z,8.90
2018-09-19T03:50:36.769Z,8.03
2018-09-19T03:53:06.371Z,10.23
2018-09-19T03:55:35.882Z,10.07
2018-09-19T03:58:05.619Z,10.87
2018-09-19T04:00:35.188Z,9.07
2018-09-19T04:03:04.800Z,9.67
2018-09-19T04:05:34.303Z,11.67
2018-09-19T04:08:03.908Z,8.33
2018-09-19T04:10:33.661Z,8.93
2018-09-19T04:13:03.123Z,9.50
2018-09-19T04:15:32.628Z,8.73
2018-09-19T04:18:02.249Z,9.30
2018-09-19T04:20:31.839Z,9.47
2018-09-19T04:23:01.473Z,10.70
2018-09-19T04:25:30.957Z,13.77
2018-09-19T04:28:00.473Z,8.80
2018-09-19T04:30:29.942Z,28.43
2018-09-19T04:32:59.361Z,17.17
2018-09-19T04:35:28.768Z,19.47
2018-09-19T04:37:58.268Z,14.93
2018-09-19T04:40:27.672Z,10.53
2018-09-19T04:42:57.074Z,13.10
2018-09-19T04:45:26.531Z,12.57
2018-09-19T04:47:57.000Z,9.90
2018-09-19T04:50:26.406Z,9.53
2018-09-19T04:52:55.806Z,9.67
2018-09-19T04:55:25.206Z,8.27
2018-09-19T04:57:54.608Z,8.43
2018-09-19T05:00:24.011Z,13.83
2018-09-19T05:02:53.415Z,11.40
2018-09-19T05:05:22.821Z,11.37
2018-09-19T05:07:52.218Z,13.23
2018-09-19T05:10:21.726Z,16.27
2018-09-19T05:12:51.129Z,10.67
2018-09-19T05:15:20.526Z,15.33
2018-09-19T05:17:49.926Z,11.53
2018-09-19T05:20:19.328Z,12.70
2018-09-19T05:22:48.730Z,12.23
2018-09-19T05:25:18.136Z,12.60
2018-09-19T05:27:47.535Z,14.03
2018-09-19T05:30:17.076Z,11.70
2018-09-19T05:32:46.699Z,12.97
2018-09-19T05:35:16.256Z,11.27
2018-09-19T05:37:45.764Z,15.43
2018-09-19T05:40:15.246Z,9.73
2018-09-19T05:42:44.972Z,12.83
2018-09-19T05:45:15.500Z,15.33
2018-09-19T05:47:45.063Z,13.03
2018-09-19T05:50:14.633Z,17.53
2018-09-19T05:52:44.221Z,9.37
2018-09-19T05:55:14.032Z,12.73
2018-09-19T05:57:43.623Z,10.60
2018-09-19T06:00:14.172Z,10.53
2018-09-19T06:02:43.486Z,9.27
2018-09-19T06:05:12.870Z,11.97
2018-09-19T06:07:42.275Z,14.07
2018-09-19T06:10:11.670Z,11.37
2018-09-19T06:12:41.131Z,11.47
2018-09-19T06:15:10.475Z,10.77
2018-09-19T06:17:41.002Z,11.70
2018-09-19T06:20:10.301Z,13.70
2018-09-19T06:22:39.908Z,11.50
2018-09-19T06:25:09.311Z,13.13
2018-09-19T06:27:38.700Z,8.77
2018-09-19T06:30:08.016Z,10.03
2018-09-19T06:32:37.414Z,13.17
2018-09-19T06:35:07.225Z,9.50
2018-09-19T06:37:36.835Z,11.70
2018-09-19T06:40:06.432Z,9.77
2018-09-19T06:42:35.999Z,12.70
2018-09-19T06:45:05.551Z,10.10
2018-09-19T06:47:35.057Z,10.83
2018-09-19T06:50:04.455Z,10.57
2018-09-19T06:52:34.021Z,12.77
2018-09-19T06:55:03.364Z,10.60
2018-09-19T06:57:32.766Z,9.97
2018-09-19T07:00:02.268Z,10.43
2018-09-19T07:02:31.671Z,10.40
2018-09-19T07:05:01.072Z,10.23
2018-09-19T07:07:30.375Z,11.80
2018-09-19T07:09:59.981Z,10.33
2018-09-19T07:12:29.487Z,12.90
2018-09-19T07:14:58.989Z,9.60
2018-09-19T07:17:28.494Z,8.00
2018-09-19T07:19:58.101Z,8.37
2018-09-19T07:22:27.416Z,7.70
2018-09-19T07:24:56.924Z,7.53
2018-09-19T07:27:26.408Z,7.87
2018-09-19T07:29:55.814Z,8.23
2018-09-19T07:32:25.155Z,8.97
2018-09-19T07:34:54.516Z,8.03
2018-09-19T07:37:24.017Z,9.50
2018-09-19T07:39:53.523Z,8.60
2018-09-19T07:42:22.924Z,8.40
2018-09-19T07:44:52.338Z,7.90
2018-09-19T07:47:21.626Z,7.70
2018-09-19T07:49:51.045Z,7.00
2018-09-19T07:52:20.542Z,8.15
2018-09-19T07:54:49.937Z,6.97
2018-09-19T07:57:19.451Z,8.23
2018-09-19T07:59:48.928Z,10.05
2018-09-19T08:02:18.238Z,9.23
2018-09-19T08:04:47.539Z,7.15
2018-09-19T08:07:16.944Z,6.80
2018-09-19T08:09:46.338Z,7.67
2018-09-19T08:12:15.745Z,6.28
2018-09-19T08:14:45.251Z,7.53
2018-09-19T08:17:15.166Z,8.50
2018-09-19T08:19:44.455Z,8.88
2018-09-19T08:22:13.771Z,7.53
2018-09-19T08:24:43.315Z,7.97
2018-09-19T08:27:12.834Z,8.05
2018-09-19T08:29:42.276Z,6.65
2018-09-19T08:32:11.678Z,8.40
2018-09-19T08:34:41.120Z,6.97
2018-09-19T08:37:10.482Z,9.05
2018-09-19T08:39:40.397Z,8.98
2018-09-19T08:42:09.900Z,6.30
2018-09-19T08:44:39.405Z,8.13
2018-09-19T08:47:08.910Z,5.50
2018-09-19T08:49:38.482Z,7.10
2018-09-19T08:52:07.873Z,5.92
2018-09-19T08:54:37.319Z,6.30
2018-09-19T08:57:07.421Z,5.17
2018-09-19T08:59:37.378Z,6.62
2018-09-19T09:02:06.841Z,4.65
2018-09-19T09:04:36.257Z,4.22
2018-09-19T09:07:05.557Z,7.37
2018-09-19T09:09:34.963Z,8.93
2018-09-19T09:12:04.369Z,6.83
2018-09-19T09:14:33.887Z,6.65
2018-09-19T09:17:03.379Z,9.35
2018-09-19T09:19:32.878Z,5.75
2018-09-19T09:22:02.379Z,5.70
2018-09-19T09:24:31.888Z,5.47
2018-09-19T09:27:01.426Z,3.90
2018-09-19T09:29:30.947Z,4.80
2018-09-19T09:32:00.499Z,5.03
2018-09-19T09:34:30.004Z,7.00
2018-09-19T09:36:59.380Z,4.92
2018-09-19T09:39:28.910Z,8.73
2018-09-19T09:41:58.209Z,6.47
2018-09-19T09:44:27.708Z,7.95
2018-09-19T09:46:57.115Z,4.97
2018-09-19T09:49:26.622Z,4.45
2018-09-19T09:51:56.124Z,3.72
2018-09-19T09:54:25.526Z,5.90
2018-09-19T09:56:54.824Z,4.25
2018-09-19T09:59:24.331Z,3.83
2018-09-19T10:01:53.735Z,3.42
2018-09-19T10:04:23.236Z,5.62
2018-09-19T10:06:52.845Z,6.33
2018-09-19T10:09:22.349Z,4.17
2018-09-19T10:11:51.853Z,6.50
2018-09-19T10:14:21.255Z,6.12
2018-09-19T10:16:50.861Z,5.37
2018-09-19T10:19:20.264Z,3.75
2018-09-19T10:21:49.774Z,4.87
2018-09-19T10:24:19.352Z,7.35
2018-09-19T10:26:48.780Z,6.20
2018-09-19T10:29:18.406Z,5.28
2018-09-19T10:31:47.786Z,11.78
2018-09-19T10:34:17.290Z,4.83
2018-09-19T10:36:46.693Z,5.28
2018-09-19T10:39:16.094Z,6.97
2018-09-19T10:41:45.611Z,4.67
2018-09-19T10:44:15.001Z,6.00
2018-09-19T10:46:44.505Z,7.17
2018-09-19T10:49:13.847Z,5.05
2018-09-19T10:51:43.203Z,5.47
2018-09-19T10:54:12.713Z,6.78
2018-09-19T10:56:42.116Z,4.87
2018-09-19T10:59:11.720Z,7.35
2018-09-19T11:01:41.156Z,5.53
2018-09-19T11:04:10.626Z,4.17
2018-09-19T11:06:40.129Z,5.78
2018-09-19T11:09:11.175Z,6.83
2018-09-19T11:11:40.676Z,5.75
2018-09-19T11:14:10.180Z,5.33
2018-09-19T11:16:39.789Z,6.03
2018-09-19T11:19:09.279Z,5.70
2018-09-19T11:21:38.593Z,4.35
2018-09-19T11:24:08.554Z,6.17
2018-09-19T11:26:37.911Z,7.03
2018-09-19T11:29:07.309Z,5.53
2018-09-19T11:31:36.917Z,4.95
2018-09-19T11:34:06.632Z,5.85
2018-09-19T11:36:36.143Z,8.03
2018-09-19T11:39:09.244Z,3.62
2018-09-19T11:41:38.928Z,5.37
2018-09-19T11:44:08.740Z,7.12
2018-09-19T11:46:38.039Z,5.00
2018-09-19T11:49:07.668Z,6.47
2018-09-19T11:51:37.151Z,5.30
2018-09-19T11:54:06.691Z,4.50
2018-09-19T11:56:36.265Z,3.70
2018-09-19T11:59:05.875Z,6.97
2018-09-19T12:01:35.193Z,4.47
2018-09-19T12:04:04.571Z,6.20
2018-09-19T12:06:33.967Z,6.37
2018-09-19T12:09:03.579Z,3.62
2018-09-19T12:11:32.910Z,3.05
2018-09-19T12:14:02.279Z,3.00
2018-09-19T12:16:31.683Z,4.87
2018-09-19T12:19:01.085Z,3.52
2018-09-19T12:21:30.589Z,3.77
2018-09-19T12:23:59.921Z,3.35
2018-09-19T12:26:29.310Z,5.10
2018-09-19T12:28:58.690Z,4.85
2018-09-19T12:31:27.991Z,6.35
2018-09-19T12:33:57.496Z,4.37
2018-09-19T12:36:27.206Z,4.05
2018-09-19T12:38:56.611Z,3.80
2018-09-19T12:41:25.907Z,2.77
2018-09-19T12:43:55.310Z,2.77
2018-09-19T12:46:24.716Z,2.20
2018-09-19T12:48:54.113Z,2.47
2018-09-19T12:51:23.517Z,4.60
2018-09-19T12:53:53.021Z,2.90
2018-09-19T12:56:22.422Z,8.43
2018-09-19T12:58:51.824Z,4.45
2018-09-19T13:01:21.329Z,4.87
2018-09-19T13:03:50.459Z,3.50
2018-09-19T13:06:19.724Z,6.87
2018-09-19T13:08:48.917Z,3.10
2018-09-19T13:11:18.119Z,4.92
2018-09-19T13:13:47.458Z,6.50
2018-09-19T13:16:16.526Z,4.47
2018-09-19T13:18:45.651Z,4.37
2018-09-19T13:21:14.731Z,6.50
2018-09-19T13:23:43.846Z,6.28
2018-09-19T13:26:12.931Z,3.02
2018-09-19T13:28:42.523Z,4.45
2018-09-19T13:31:11.616Z,6.90
2018-09-19T13:33:40.695Z,3.77
2018-09-19T13:36:09.825Z,3.05
2018-09-19T13:38:38.920Z,5.83
2018-09-19T13:41:08.384Z,4.65
2018-09-19T13:43:37.640Z,6.70
2018-09-19T13:46:07.082Z,4.55
2018-09-19T13:48:36.577Z,3.75
2018-09-19T13:51:10.263Z,3.20
2018-09-19T13:53:39.569Z,2.50
2018-09-19T13:56:08.995Z,6.78
2018-09-19T13:58:38.498Z,4.87
2018-09-19T14:01:08.004Z,7.42
2018-09-19T14:03:37.507Z,6.37
2018-09-19T14:06:07.071Z,4.80
2018-09-19T14:08:36.617Z,3.08
2018-09-19T14:11:06.123Z,4.55
2018-09-19T14:13:35.448Z,4.87
2018-09-19T14:16:04.825Z,3.12
2018-09-19T14:18:34.225Z,6.35
2018-09-19T14:21:03.631Z,5.30
2018-09-19T14:23:33.032Z,2.87
2018-09-19T14:26:02.432Z,5.08
2018-09-19T14:28:31.740Z,4.75
2018-09-19T14:31:01.141Z,3.12
2018-09-19T14:33:30.537Z,4.80
2018-09-19T14:36:00.076Z,4.53
2018-09-19T14:38:29.443Z,3.77
2018-09-19T14:40:58.846Z,3.25
2018-09-19T14:43:28.144Z,4.17
2018-09-19T14:45:57.546Z,2.92
2018-09-19T14:48:26.989Z,11.35
2018-09-19T14:50:56.351Z,3.30
2018-09-19T14:53:25.856Z,5.35
2018-09-19T14:55:55.259Z,3.22
2018-09-19T14:58:24.763Z,3.62
2018-09-19T15:00:54.169Z,3.92
2018-09-19T15:03:23.817Z,4.12
2018-09-19T15:05:53.278Z,4.50
2018-09-19T15:08:22.784Z,2.90
2018-09-19T15:10:52.341Z,3.85
2018-09-19T15:13:21.687Z,3.62
2018-09-19T15:15:51.096Z,7.03
2018-09-19T15:18:20.594Z,3.22
2018-09-19T15:20:49.994Z,4.80
2018-09-19T15:23:19.301Z,4.67
2018-09-19T15:25:48.698Z,4.33
2018-09-19T15:28:17.077Z,5.10
2018-09-19T15:30:46.352Z,3.95
2018-09-19T15:33:15.777Z,3.72
2018-09-19T15:35:45.283Z,3.85
2018-09-19T15:38:14.784Z,8.83
2018-09-19T15:40:44.189Z,5.10
2018-09-19T15:43:13.687Z,6.05
2018-09-19T15:45:43.095Z,11.08
2018-09-19T15:48:12.421Z,3.42
2018-09-19T15:50:41.898Z,3.65
2018-09-19T15:53:11.507Z,4.60
2018-09-19T15:55:41.001Z,5.60
2018-09-19T15:58:10.311Z,14.60
2018-09-19T16:00:39.918Z,9.05
2018-09-19T16:03:09.443Z,3.47
2018-09-19T16:05:39.905Z,7.20
2018-09-19T16:08:09.558Z,4.62
2018-09-19T16:10:39.058Z,4.75
2018-09-19T16:13:08.670Z,7.65
2018-09-19T16:15:38.173Z,9.78
2018-09-19T16:18:07.674Z,3.22
2018-09-19T16:20:37.182Z,4.25
2018-09-19T16:23:06.789Z,4.10
2018-09-19T16:25:36.278Z,5.53
2018-09-19T16:28:05.590Z,3.22
2018-09-19T16:30:35.011Z,3.47
2018-09-19T16:33:04.823Z,3.08
2018-09-19T16:35:34.313Z,3.45
2018-09-19T16:38:03.650Z,4.17
2018-09-19T16:40:33.217Z,4.12
2018-09-19T16:43:02.722Z,4.80
2018-09-19T16:45:32.242Z,8.35
2018-09-19T16:48:01.629Z,3.85
2018-09-19T16:50:30.925Z,4.85
2018-09-19T16:53:00.503Z,3.58
2018-09-19T16:55:29.938Z,4.10
2018-09-19T16:57:59.235Z,5.30
2018-09-19T17:00:28.534Z,3.62
2018-09-19T17:02:58.039Z,2.98
2018-09-19T17:05:27.258Z,3.77
2018-09-19T17:07:56.637Z,3.83
2018-09-19T17:10:26.042Z,4.53
2018-09-19T17:12:55.463Z,6.72
2018-09-19T17:15:25.022Z,5.78
2018-09-19T17:17:54.351Z,3.85
2018-09-19T17:20:23.752Z,5.72
2018-09-19T17:22:53.154Z,3.72
2018-09-19T17:25:22.556Z,4.78
2018-09-19T17:27:51.807Z,3.17
2018-09-19T17:30:21.361Z,4.22
2018-09-19T17:32:50.762Z,4.45
2018-09-19T17:35:20.163Z,3.80
2018-09-19T17:37:49.771Z,3.62
2018-09-19T17:40:19.008Z,5.15
2018-09-19T17:42:48.409Z,7.05
2018-09-19T17:45:18.085Z,3.27
2018-09-19T17:47:47.584Z,4.97
2018-09-19T17:50:17.076Z,6.62
2018-09-19T17:52:46.398Z,8.85
2018-09-19T17:55:15.815Z,4.22
2018-09-19T17:57:45.296Z,3.75
2018-09-19T18:00:14.800Z,2.75
2018-09-19T18:02:44.851Z,5.12
2018-09-19T18:05:14.321Z,4.60
2018-09-19T18:07:44.043Z,5.15
2018-09-19T18:10:13.513Z,5.75
2018-09-19T18:12:43.068Z,5.90
2018-09-19T18:15:12.439Z,5.35
2018-09-19T18:17:41.848Z,4.65
2018-09-19T18:20:11.257Z,6.15
2018-09-19T18:22:40.642Z,3.50
2018-09-19T18:25:10.255Z,8.95
2018-09-19T18:27:39.772Z,8.85
2018-09-19T18:30:09.299Z,9.45
2018-09-19T18:32:38.869Z,6.15
2018-09-19T18:35:08.375Z,4.92
2018-09-19T18:37:37.698Z,4.95
2018-09-19T18:40:07.234Z,8.18
2018-09-19T18:42:37.100Z,11.70
2018-09-19T18:45:06.916Z,5.80
2018-09-19T18:47:36.511Z,6.50
2018-09-19T18:50:06.084Z,8.98
2018-09-19T18:52:35.735Z,9.40
2018-09-19T18:55:05.382Z,5.30
2018-09-19T18:57:34.736Z,4.37
2018-09-19T19:00:04.445Z,5.80
2018-09-19T19:02:34.275Z,3.33
2018-09-19T19:05:04.232Z,4.65
2018-09-19T19:07:33.877Z,6.10
2018-09-19T19:10:03.384Z,4.08
2018-09-19T19:12:32.890Z,7.20
2018-09-19T19:15:02.472Z,7.25
2018-09-19T19:17:32.006Z,7.87
2018-09-19T19:20:01.409Z,6.65
2018-09-19T19:22:30.904Z,8.73
2018-09-19T19:25:00.430Z,8.95
2018-09-19T19:27:29.810Z,6.75
2018-09-19T19:29:59.296Z,4.87
2018-09-19T19:32:28.637Z,5.47
2018-09-19T19:34:58.016Z,5.60
2018-09-19T19:37:27.420Z,5.75
2018-09-19T19:39:57.078Z,6.22
2018-09-19T19:42:26.737Z,4.75
2018-09-19T19:44:56.143Z,6.60
2018-09-19T19:47:25.645Z,7.33
2018-09-19T19:49:55.048Z,7.28
2018-09-19T19:52:24.445Z,7.08
2018-09-19T19:54:53.968Z,4.28
2018-09-19T19:57:23.355Z,7.65
2018-09-19T19:59:52.754Z,5.62
2018-09-19T20:02:22.261Z,4.75
2018-09-19T20:04:51.661Z,7.95
2018-09-19T20:07:21.066Z,4.85
2018-09-19T20:09:50.564Z,5.05
2018-09-19T20:12:20.071Z,5.78
2018-09-19T20:14:49.480Z,4.78
2018-09-19T20:17:18.877Z,3.85
2018-09-19T20:19:48.382Z,4.75
2018-09-19T20:22:17.783Z,3.98
2018-09-19T20:24:47.183Z,4.62
2018-09-19T20:27:16.610Z,4.30
2018-09-19T20:29:46.093Z,8.48
2018-09-19T20:32:15.646Z,6.05
2018-09-19T20:34:45.202Z,6.47
2018-09-19T20:37:14.616Z,7.08
2018-09-19T20:39:44.106Z,4.28
2018-09-19T20:42:13.614Z,5.33
2018-09-19T20:44:43.119Z,6.35
2018-09-19T20:47:13.035Z,7.67
2018-09-19T20:49:42.701Z,7.87
2018-09-19T20:52:12.144Z,5.87
2018-09-19T20:54:41.652Z,5.08
2018-09-19T20:57:11.054Z,5.33
2018-09-19T20:59:40.920Z,4.70
2018-09-19T21:02:10.573Z,5.55
2018-09-19T21:04:40.000Z,5.97
2018-09-19T21:07:10.033Z,5.72
2018-09-19T21:09:39.804Z,6.47
2018-09-19T21:12:09.307Z,5.25
2018-09-19T21:14:38.811Z,6.00
2018-09-19T21:17:09.032Z,4.00
2018-09-19T21:19:38.285Z,7.47
2018-09-19T21:22:07.663Z,6.03
2018-09-19T21:24:36.952Z,4.55
2018-09-19T21:27:06.335Z,4.17
2018-09-19T21:29:35.733Z,3.83
2018-09-19T21:32:05.046Z,6.90
2018-09-19T21:34:34.641Z,6.17
2018-09-19T21:37:03.942Z,5.92
2018-09-19T21:39:33.112Z,5.95
2018-09-19T21:42:02.540Z,5.25
2018-09-19T21:44:32.043Z,4.17
2018-09-19T21:47:01.359Z,4.37
2018-09-19T21:49:30.744Z,5.65
2018-09-19T21:52:00.148Z,3.75
2018-09-19T21:54:29.651Z,4.35
2018-09-19T21:56:59.069Z,5.03
2018-09-19T21:59:28.458Z,5.12
2018-09-19T22:02:00.009Z,4.08
2018-09-19T22:04:29.575Z,5.17
2018-09-19T22:06:59.019Z,5.42
2018-09-19T22:09:28.419Z,4.30
2018-09-19T22:11:58.026Z,5.47
2018-09-19T22:14:27.428Z,7.47
2018-09-19T22:16:56.728Z,5.50
2018-09-19T22:19:26.234Z,7.25
2018-09-19T22:21:55.740Z,4.60
2018-09-19T22:24:25.144Z,4.03
2018-09-19T22:26:54.541Z,4.67
2018-09-19T22:29:23.790Z,5.30
2018-09-19T22:31:53.433Z,4.40
2018-09-19T22:34:22.856Z,3.87
2018-09-19T22:36:52.251Z,4.67
2018-09-19T22:39:21.652Z,5.42
2018-09-19T22:41:50.031Z,6.92
2018-09-19T22:44:19.331Z,5.30
2018-09-19T22:46:48.836Z,3.70
2018-09-19T22:49:18.136Z,5.28
2018-09-19T22:51:47.665Z,5.80
2018-09-19T22:54:17.232Z,5.45
2018-09-19T22:56:46.752Z,6.28
2018-09-19T22:59:16.462Z,6.33
2018-09-19T23:01:45.992Z,4.78
2018-09-19T23:04:15.367Z,5.17
2018-09-19T23:06:44.871Z,6.15
2018-09-19T23:09:14.286Z,5.47
2018-09-19T23:11:43.673Z,4.80
2018-09-19T23:14:13.076Z,5.28
2018-09-19T23:16:42.480Z,4.53
2018-09-19T23:19:11.777Z,6.95
2018-09-19T23:21:41.079Z,7.00
2018-09-19T23:24:10.480Z,5.47
2018-09-19T23:26:39.882Z,3.92
2018-09-19T23:29:09.362Z,4.37
2018-09-19T23:31:38.689Z,6.10
2018-09-19T23:34:08.091Z,3.50
2018-09-19T23:36:37.594Z,6.00
2018-09-19T23:39:08.700Z,3.72
2018-09-19T23:41:38.034Z,4.00
2018-09-19T23:44:07.436Z,5.12
2018-09-19T23:46:36.836Z,4.30
2018-09-19T23:49:06.398Z,5.12
2018-09-19T23:51:35.937Z,5.72
2018-09-19T23:54:05.396Z,6.08
2018-09-19T23:56:34.860Z,5.22
2018-09-19T23:59:04.363Z,5.92
